Time;durP1;ratioP1;P1;durP2;ratioP2;P2;SDS_P1;SDS_P2;PMS_P1;PMS_P2;Temp;Humidity;BMP_temperature;BMP_pressure;BME280_temperature;BME280_humidity;BME280_pressure;Samples;Min_cycle;Max_cycle;Signal;HPM_P1;HPM_P2
2021/10/11 00:00:11;;;;;;;17.90;13.13;;;8.10;78.00;;;;;;5014811;28;20437;-44
2021/10/11 00:02:38;;;;;;;15.90;12.70;;;8.10;77.70;;;;;;5012732;28;20456;-45
2021/10/11 00:05:06;;;;;;;20.70;11.97;;;8.00;78.00;;;;;;4995487;28;21011;-45
2021/10/11 00:07:32;;;;;;;17.40;13.17;;;8.00;78.20;;;;;;5012743;28;20528;-45
2021/10/11 00:09:59;;;;;;;17.10;12.13;;;7.90;78.30;;;;;;5015446;28;20875;-44
2021/10/11 00:12:26;;;;;;;19.10;12.67;;;7.90;78.40;;;;;;5014574;28;20460;-44
2021/10/11 00:14:53;;;;;;;19.00;14.57;;;8.00;78.00;;;;;;5011458;28;20896;-45
2021/10/11 00:17:20;;;;;;;15.17;11.90;;;7.90;78.00;;;;;;5010935;28;20445;-45
2021/10/11 00:19:50;;;;;;;17.87;13.90;;;7.90;78.40;;;;;;5012468;28;20817;-45
2021/10/11 00:22:21;;;;;;;17.97;13.10;;;7.90;78.30;;;;;;5012765;28;20483;-45
2021/10/11 00:24:48;;;;;;;16.80;13.40;;;7.90;78.40;;;;;;5013214;28;21501;-45
2021/10/11 00:27:17;;;;;;;14.07;12.27;;;7.80;78.60;;;;;;5015628;28;20447;-45
2021/10/11 00:29:44;;;;;;;16.10;13.00;;;7.90;78.50;;;;;;5009950;28;20532;-45
2021/10/11 00:32:10;;;;;;;20.77;13.03;;;7.80;78.50;;;;;;5013725;28;20457;-45
2021/10/11 00:34:37;;;;;;;17.60;13.63;;;7.80;78.50;;;;;;5011945;28;20531;-44
2021/10/11 00:37:05;;;;;;;20.53;13.10;;;7.80;78.70;;;;;;5014687;28;20460;-45
2021/10/11 00:39:32;;;;;;;15.43;12.40;;;7.70;78.90;;;;;;4996496;28;20452;-45
2021/10/11 00:41:59;;;;;;;19.00;13.97;;;7.60;79.10;;;;;;5013616;28;20867;-44
2021/10/11 00:44:26;;;;;;;14.73;13.03;;;7.70;79.00;;;;;;5014861;28;20833;-44
2021/10/11 00:46:53;;;;;;;18.37;12.63;;;7.70;79.00;;;;;;5012645;28;20470;-44
2021/10/11 00:49:19;;;;;;;15.60;12.60;;;7.60;79.00;;;;;;5013054;28;20464;-44
2021/10/11 00:51:46;;;;;;;17.87;12.50;;;7.60;78.90;;;;;;5012850;28;20452;-45
2021/10/11 00:54:14;;;;;;;19.33;14.37;;;7.60;78.50;;;;;;5010896;28;20991;-44
2021/10/11 00:56:42;;;;;;;22.80;14.40;;;7.60;78.40;;;;;;5012022;28;20520;-44
2021/10/11 00:59:08;;;;;;;18.20;13.10;;;7.60;78.50;;;;;;4993752;28;20472;-44
2021/10/11 01:01:35;;;;;;;16.70;12.30;;;7.60;78.40;;;;;;5012670;28;20449;-44
2021/10/11 01:04:05;;;;;;;17.50;12.93;;;7.50;78.50;;;;;;5014031;28;20476;-45
2021/10/11 01:06:38;;;;;;;18.80;12.60;;;7.50;78.50;;;;;;5012180;28;20516;-44
2021/10/11 01:09:07;;;;;;;18.27;13.20;;;7.40;78.60;;;;;;5013589;28;20933;-44
2021/10/11 01:11:35;;;;;;;15.50;12.47;;;7.40;78.70;;;;;;5013053;28;20465;-44
2021/10/11 01:14:03;;;;;;;19.90;13.97;;;7.40;78.70;;;;;;5006623;28;21041;-44
2021/10/11 01:16:31;;;;;;;18.87;12.53;;;7.40;78.60;;;;;;5010810;28;20497;-44
2021/10/11 01:18:57;;;;;;;17.80;12.00;;;7.40;78.60;;;;;;5010077;28;20464;-44
2021/10/11 01:21:25;;;;;;;19.33;12.23;;;7.30;78.70;;;;;;5011645;28;20444;-44
2021/10/11 01:23:53;;;;;;;17.23;12.00;;;7.30;78.90;;;;;;5010359;28;20476;-44
2021/10/11 01:26:21;;;;;;;20.60;13.60;;;7.30;78.80;;;;;;4995776;28;21020;-44
2021/10/11 01:28:48;;;;;;;17.27;12.80;;;7.40;78.70;;;;;;5012640;28;20971;-44
2021/10/11 01:31:14;;;;;;;16.23;13.23;;;7.40;78.60;;;;;;5010759;28;20460;-44
2021/10/11 01:33:41;;;;;;;19.30;14.00;;;7.30;78.60;;;;;;5013000;28;20463;-44
2021/10/11 01:36:08;;;;;;;17.33;11.53;;;7.30;78.60;;;;;;4994160;28;20527;-44
2021/10/11 01:38:34;;;;;;;20.53;12.77;;;7.20;78.80;;;;;;5011814;28;20864;-45
2021/10/11 01:41:01;;;;;;;14.60;12.43;;;7.20;78.90;;;;;;4994169;28;20474;-44
2021/10/11 01:43:28;;;;;;;14.10;11.77;;;7.30;79.00;;;;;;5011242;28;20815;-44
2021/10/11 01:45:55;;;;;;;15.67;12.93;;;7.20;79.00;;;;;;5009427;28;20912;-44
2021/10/11 01:48:21;;;;;;;20.13;12.90;;;7.30;79.00;;;;;;5010936;28;20464;-45
2021/10/11 01:50:48;;;;;;;15.37;12.57;;;7.30;79.00;;;;;;5012901;28;20536;-45
2021/10/11 01:53:15;;;;;;;17.37;13.00;;;7.20;79.10;;;;;;5013043;28;20814;-44
2021/10/11 01:55:41;;;;;;;19.87;12.97;;;7.20;79.20;;;;;;5010692;28;20477;-45
2021/10/11 01:58:08;;;;;;;18.90;14.20;;;7.20;79.20;;;;;;5010481;28;20451;-44
2021/10/11 02:00:36;;;;;;;15.63;12.13;;;7.20;79.20;;;;;;4993317;28;20969;-44
2021/10/11 02:03:06;;;;;;;19.30;13.77;;;7.20;79.40;;;;;;5011730;28;20496;-44
2021/10/11 02:05:34;;;;;;;16.50;12.13;;;7.20;79.50;;;;;;5008673;28;20497;-45
2021/10/11 02:08:02;;;;;;;16.77;12.80;;;7.20;79.40;;;;;;5013535;28;21028;-45
2021/10/11 02:10:29;;;;;;;19.10;13.33;;;7.20;79.40;;;;;;4994602;28;20816;-44
2021/10/11 02:12:59;;;;;;;16.30;12.43;;;7.20;79.40;;;;;;5011955;28;20444;-44
2021/10/11 02:15:26;;;;;;;17.13;12.63;;;7.30;79.00;;;;;;5008436;28;20480;-44
2021/10/11 02:17:56;;;;;;;16.27;12.47;;;7.20;79.10;;;;;;5010343;28;20502;-44
2021/10/11 02:20:25;;;;;;;20.27;13.07;;;7.20;79.00;;;;;;5012021;28;20448;-44
2021/10/11 02:22:52;;;;;;;20.20;12.67;;;7.20;79.10;;;;;;5010937;28;20460;-44
2021/10/11 02:25:19;;;;;;;17.00;11.73;;;7.20;79.00;;;;;;5008944;28;20829;-44
2021/10/11 02:27:46;;;;;;;17.93;12.80;;;7.20;78.80;;;;;;5011766;28;20456;-44
2021/10/11 02:30:13;;;;;;;17.63;13.03;;;7.20;78.70;;;;;;5010887;28;20452;-44
2021/10/11 02:32:41;;;;;;;16.73;11.83;;;7.10;78.60;;;;;;4992554;28;20458;-44
2021/10/11 02:35:08;;;;;;;17.27;12.30;;;7.10;78.50;;;;;;5009814;28;20937;-44
2021/10/11 02:37:35;;;;;;;15.00;13.03;;;7.10;78.60;;;;;;5012228;28;20454;-44
2021/10/11 02:40:03;;;;;;;16.60;13.50;;;7.00;78.80;;;;;;5010203;28;20468;-44
2021/10/11 02:42:30;;;;;;;19.67;12.73;;;7.00;78.90;;;;;;5009198;28;20467;-44
2021/10/11 02:44:56;;;;;;;27.53;14.10;;;7.00;78.90;;;;;;5009463;28;20787;-41
2021/10/11 02:47:23;;;;;;;16.93;12.50;;;7.00;78.80;;;;;;5006276;28;20471;-41
2021/10/11 02:49:50;;;;;;;17.63;12.80;;;7.00;78.90;;;;;;5006267;28;20802;-41
2021/10/11 02:52:16;;;;;;;16.33;12.93;;;6.90;78.90;;;;;;4992383;28;20467;-41
2021/10/11 02:54:43;;;;;;;21.70;12.70;;;7.00;79.00;;;;;;5008794;28;20457;-41
2021/10/11 02:57:10;;;;;;;22.53;13.87;;;6.90;79.00;;;;;;5006523;28;20492;-41
2021/10/11 02:59:36;;;;;;;16.70;13.30;;;6.90;79.10;;;;;;5002836;28;20857;-41
2021/10/11 03:02:03;;;;;;;19.53;13.73;;;6.90;79.10;;;;;;5009373;28;20468;-42
2021/10/11 03:04:30;;;;;;;15.83;12.53;;;6.90;79.30;;;;;;5008082;28;20498;-42
2021/10/11 03:06:56;;;;;;;15.10;12.27;;;6.90;79.40;;;;;;5007388;28;20472;-42
2021/10/11 03:09:23;;;;;;;17.67;12.93;;;6.90;79.50;;;;;;5010787;28;20461;-42
2021/10/11 03:11:50;;;;;;;16.57;13.03;;;6.80;79.60;;;;;;5011263;28;20452;-42
2021/10/11 03:14:18;;;;;;;20.80;13.30;;;6.90;79.60;;;;;;5010183;28;20464;-42
2021/10/11 03:16:44;;;;;;;17.80;13.30;;;6.90;79.40;;;;;;5010708;28;20499;-43
2021/10/11 03:19:11;;;;;;;21.07;13.60;;;6.90;79.20;;;;;;5008540;28;20840;-42
2021/10/11 03:21:38;;;;;;;20.57;13.70;;;6.80;79.00;;;;;;5011258;28;20460;-42
2021/10/11 03:24:05;;;;;;;17.23;11.63;;;6.80;79.20;;;;;;4992983;28;20475;-42
2021/10/11 03:26:32;;;;;;;15.17;12.47;;;6.70;79.20;;;;;;4991913;28;20844;-42
2021/10/11 03:28:59;;;;;;;16.43;12.03;;;6.70;79.30;;;;;;5009966;28;20456;-42
2021/10/11 03:31:25;;;;;;;18.30;12.83;;;6.70;79.40;;;;;;5011164;28;20534;-42
2021/10/11 03:33:52;;;;;;;17.47;12.27;;;6.70;79.40;;;;;;5009384;28;20495;-42
2021/10/11 03:36:19;;;;;;;16.00;12.87;;;6.70;79.30;;;;;;4992629;28;20492;-42
2021/10/11 03:38:45;;;;;;;17.10;12.30;;;6.70;79.40;;;;;;5009066;28;20478;-42
2021/10/11 03:41:12;;;;;;;15.80;12.50;;;6.70;79.70;;;;;;5009514;28;20550;-42
2021/10/11 03:43:39;;;;;;;16.03;11.47;;;6.70;79.70;;;;;;5008390;28;20453;-42
2021/10/11 03:46:05;;;;;;;19.90;12.73;;;6.70;79.80;;;;;;5008075;28;20840;-42
2021/10/11 03:48:32;;;;;;;19.67;12.60;;;6.70;79.90;;;;;;5007048;28;20461;-42
2021/10/11 03:50:59;;;;;;;18.10;12.10;;;6.60;80.20;;;;;;5008411;28;20452;-42
2021/10/11 03:53:26;;;;;;;16.80;11.83;;;6.70;80.30;;;;;;5010307;28;20460;-42
2021/10/11 03:55:53;;;;;;;16.37;12.57;;;6.70;80.30;;;;;;5009935;28;20506;-42
2021/10/11 03:58:19;;;;;;;17.27;11.97;;;6.70;80.40;;;;;;5009705;28;20457;-42
2021/10/11 04:00:46;;;;;;;17.00;12.60;;;6.70;80.40;;;;;;4995269;28;20452;-42
2021/10/11 04:03:13;;;;;;;21.03;12.37;;;6.70;80.50;;;;;;4992127;28;20530;-42
2021/10/11 04:05:40;;;;;;;19.93;12.33;;;6.70;80.60;;;;;;5007412;28;20464;-42
2021/10/11 04:08:13;;;;;;;17.37;12.30;;;6.80;80.80;;;;;;5009427;28;20456;-42
2021/10/11 04:10:52;;;;;;;15.60;11.73;;;6.80;80.90;;;;;;4990957;28;20842;-42
2021/10/11 04:13:20;;;;;;;18.47;13.37;;;6.80;81.00;;;;;;5008654;28;20463;-42
2021/10/11 04:15:48;;;;;;;20.13;13.47;;;6.80;81.20;;;;;;5009066;28;20804;-42
2021/10/11 04:18:16;;;;;;;15.87;13.33;;;6.80;81.30;;;;;;5009604;28;20817;-42
2021/10/11 04:20:43;;;;;;;19.67;13.30;;;6.90;81.40;;;;;;4992428;28;20543;-42
2021/10/11 04:23:10;;;;;;;14.70;11.43;;;6.90;81.50;;;;;;5010100;28;20462;-42
2021/10/11 04:25:37;;;;;;;17.47;11.77;;;6.90;81.50;;;;;;5008457;28;20460;-42
2021/10/11 04:28:04;;;;;;;14.30;11.30;;;6.90;81.50;;;;;;5006198;28;20459;-42
2021/10/11 04:30:32;;;;;;;18.90;12.70;;;7.00;81.60;;;;;;5009572;28;20671;-42
2021/10/11 04:32:58;;;;;;;15.90;12.03;;;7.00;81.70;;;;;;5006179;28;20465;-42
2021/10/11 04:35:25;;;;;;;15.23;11.27;;;7.10;81.70;;;;;;5007721;28;20831;-42
2021/10/11 04:37:52;;;;;;;15.60;11.43;;;7.10;81.60;;;;;;5009403;28;20503;-42
2021/10/11 04:40:20;;;;;;;18.97;13.20;;;7.10;81.60;;;;;;5008755;28;20452;-42
2021/10/11 04:42:46;;;;;;;18.50;13.57;;;7.10;81.70;;;;;;5008131;28;20465;-42
2021/10/11 04:45:13;;;;;;;18.60;11.60;;;7.10;81.60;;;;;;5007138;28;20449;-42
2021/10/11 04:47:40;;;;;;;19.23;12.40;;;7.10;81.70;;;;;;5006927;28;20467;-42
2021/10/11 04:50:07;;;;;;;19.10;13.07;;;7.10;81.70;;;;;;5007950;28;20872;-42
2021/10/11 04:52:34;;;;;;;22.23;14.23;;;7.10;81.40;;;;;;5009062;28;20937;-42
2021/10/11 04:55:01;;;;;;;18.20;12.03;;;7.10;81.50;;;;;;5009532;28;20467;-42
2021/10/11 04:57:28;;;;;;;20.87;13.57;;;7.10;81.60;;;;;;5006536;28;20492;-42
2021/10/11 04:59:55;;;;;;;18.47;12.80;;;7.10;81.70;;;;;;5007603;28;20470;-42
2021/10/11 05:02:22;;;;;;;15.30;12.10;;;7.10;81.30;;;;;;5007981;28;20467;-42
2021/10/11 05:04:48;;;;;;;17.73;12.40;;;7.10;81.30;;;;;;5007821;28;20755;-42
2021/10/11 05:07:15;;;;;;;18.20;12.43;;;7.10;81.30;;;;;;5005919;28;20863;-42
2021/10/11 05:09:42;;;;;;;16.10;11.23;;;7.10;81.10;;;;;;5008838;28;20831;-42
2021/10/11 05:12:08;;;;;;;17.33;11.83;;;7.10;81.30;;;;;;4989284;28;20464;-42
2021/10/11 05:14:35;;;;;;;13.97;11.93;;;7.10;81.30;;;;;;5009473;28;20472;-42
2021/10/11 05:17:02;;;;;;;17.00;13.13;;;7.10;81.10;;;;;;5008505;28;20496;-42
2021/10/11 05:19:29;;;;;;;20.87;12.50;;;7.10;81.00;;;;;;4991176;28;20456;-42
2021/10/11 05:21:56;;;;;;;17.33;13.03;;;7.10;81.10;;;;;;5005892;28;20469;-42
2021/10/11 05:24:24;;;;;;;15.73;12.20;;;7.10;81.30;;;;;;5006638;28;20479;-42
2021/10/11 05:26:52;;;;;;;18.60;13.53;;;7.10;81.10;;;;;;5005241;28;20479;-42
2021/10/11 05:29:20;;;;;;;16.70;13.50;;;7.10;81.30;;;;;;5007493;28;20976;-42
2021/10/11 05:31:47;;;;;;;15.40;12.77;;;7.10;81.30;;;;;;5003816;28;20456;-42
2021/10/11 05:34:14;;;;;;;22.60;15.70;;;7.00;81.30;;;;;;5004103;28;20991;-42
2021/10/11 05:36:41;;;;;;;18.50;14.03;;;7.00;81.30;;;;;;5007660;28;20849;-42
2021/10/11 05:39:08;;;;;;;17.93;14.13;;;7.10;81.50;;;;;;5008623;28;20960;-42
2021/10/11 05:41:35;;;;;;;22.27;14.83;;;7.10;81.30;;;;;;5005505;28;21006;-42
2021/10/11 05:44:03;;;;;;;21.47;15.27;;;7.10;81.30;;;;;;5006052;28;20930;-42
2021/10/11 05:46:29;;;;;;;18.90;14.30;;;7.00;81.70;;;;;;4988904;28;20453;-42
2021/10/11 05:49:10;;;;;;;19.73;14.93;;;7.00;81.70;;;;;;5007546;28;20486;-42
2021/10/11 05:51:37;;;;;;;21.93;13.93;;;7.00;81.80;;;;;;5006987;28;20464;-42
2021/10/11 05:54:03;;;;;;;23.20;14.93;;;7.10;81.90;;;;;;5007373;28;20452;-42
2021/10/11 05:56:30;;;;;;;18.60;13.90;;;7.10;81.80;;;;;;5007243;28;20511;-42
2021/10/11 05:58:57;;;;;;;18.27;14.43;;;7.10;81.70;;;;;;5005786;28;20452;-42
2021/10/11 06:01:24;;;;;;;20.30;14.73;;;7.10;81.90;;;;;;5007483;28;20467;-42
2021/10/11 06:03:50;;;;;;;26.93;16.00;;;7.10;81.90;;;;;;5006299;28;20547;-42
2021/10/11 06:06:17;;;;;;;21.67;15.00;;;7.10;82.00;;;;;;4987397;28;20460;-42
2021/10/11 06:08:44;;;;;;;30.23;15.60;;;7.10;82.00;;;;;;5005025;28;20490;-42
2021/10/11 06:11:17;;;;;;;18.87;14.33;;;7.10;82.00;;;;;;5002654;28;20461;-42
2021/10/11 06:13:45;;;;;;;22.47;14.23;;;7.10;82.10;;;;;;5004554;28;20448;-42
2021/10/11 06:16:12;;;;;;;23.73;14.80;;;7.20;82.20;;;;;;5004811;28;20459;-42
2021/10/11 06:18:40;;;;;;;27.03;16.37;;;7.20;82.20;;;;;;5006826;28;20808;-42
2021/10/11 06:21:07;;;;;;;24.80;15.57;;;7.20;82.30;;;;;;5000934;28;20463;-42
2021/10/11 06:23:34;;;;;;;24.17;15.20;;;7.20;82.30;;;;;;5007350;28;20547;-42
2021/10/11 06:26:01;;;;;;;24.77;16.67;;;7.20;82.30;;;;;;5004615;28;20496;-42
2021/10/11 06:28:29;;;;;;;26.70;16.80;;;7.20;82.30;;;;;;5003840;28;20459;-42
2021/10/11 06:30:56;;;;;;;27.50;17.87;;;7.30;82.40;;;;;;5003711;28;20695;-42
2021/10/11 06:33:24;;;;;;;26.37;16.93;;;7.30;82.40;;;;;;5005330;28;20462;-42
2021/10/11 06:35:51;;;;;;;22.37;16.17;;;7.30;82.50;;;;;;5004558;28;20448;-42
2021/10/11 06:38:18;;;;;;;36.90;18.60;;;7.40;82.60;;;;;;5006265;28;20479;-42
2021/10/11 06:40:50;;;;;;;24.90;17.70;;;7.40;82.60;;;;;;5006089;28;20444;-42
2021/10/11 06:43:17;;;;;;;23.97;16.43;;;7.40;82.70;;;;;;5004805;28;20448;-42
2021/10/11 06:45:45;;;;;;;26.30;17.63;;;7.50;82.70;;;;;;5003812;28;20461;-42
2021/10/11 06:48:11;;;;;;;23.50;16.83;;;7.50;82.80;;;;;;5006193;28;20973;-42
2021/10/11 06:50:38;;;;;;;24.63;17.00;;;7.60;82.70;;;;;;5002584;28;20464;-42
2021/10/11 06:53:05;;;;;;;21.30;16.60;;;7.70;82.50;;;;;;5004758;28;20471;-42
2021/10/11 06:55:32;;;;;;;25.73;17.10;;;7.70;82.50;;;;;;5003471;28;20457;-42
2021/10/11 06:58:00;;;;;;;26.40;17.70;;;7.70;82.60;;;;;;5004807;28;21030;-42
2021/10/11 07:00:27;;;;;;;25.33;16.63;;;7.70;82.70;;;;;;5004132;28;20456;-42
2021/10/11 07:02:54;;;;;;;24.93;18.10;;;7.80;82.40;;;;;;4985036;28;20841;-42
2021/10/11 07:05:20;;;;;;;26.10;16.70;;;7.90;82.00;;;;;;5001010;28;21092;-42
2021/10/11 07:07:47;;;;;;;22.93;16.70;;;7.90;82.00;;;;;;5004245;28;20449;-42
2021/10/11 07:10:14;;;;;;;21.37;15.80;;;8.00;81.80;;;;;;4999951;28;20465;-42
2021/10/11 07:12:41;;;;;;;20.50;14.53;;;8.00;81.80;;;;;;4999876;28;20469;-42
2021/10/11 07:15:23;;;;;;;23.73;15.90;;;7.90;82.00;;;;;;4999913;28;20921;-42
2021/10/11 07:17:51;;;;;;;31.60;17.87;;;7.90;82.10;;;;;;5000543;28;20579;-42
2021/10/11 07:20:17;;;;;;;28.73;19.10;;;7.90;82.20;;;;;;4999733;28;20456;-42
2021/10/11 07:22:44;;;;;;;25.30;16.57;;;8.00;82.10;;;;;;5000645;28;20759;-42
2021/10/11 07:25:11;;;;;;;25.23;18.13;;;8.10;81.80;;;;;;5001136;28;20832;-42
2021/10/11 07:27:37;;;;;;;23.20;16.90;;;8.10;82.10;;;;;;5001243;28;20487;-42
2021/10/11 07:30:05;;;;;;;26.23;18.23;;;8.20;82.40;;;;;;5000878;28;20469;-42
2021/10/11 07:32:31;;;;;;;22.53;17.17;;;8.20;82.50;;;;;;5002650;28;20452;-42
2021/10/11 07:34:59;;;;;;;28.00;17.20;;;8.20;82.40;;;;;;4999326;28;20465;-42
2021/10/11 07:37:26;;;;;;;23.00;15.30;;;8.30;82.20;;;;;;4997046;28;21005;-42
2021/10/11 07:39:53;;;;;;;27.83;17.90;;;8.30;82.20;;;;;;4988539;28;21104;-42
2021/10/11 07:42:19;;;;;;;24.70;17.87;;;8.30;82.30;;;;;;5004704;28;20455;-42
2021/10/11 07:44:46;;;;;;;24.80;16.23;;;8.30;82.20;;;;;;5004065;28;20953;-42
2021/10/11 07:47:13;;;;;;;23.70;16.67;;;8.30;82.30;;;;;;5006973;28;20454;-42
2021/10/11 07:49:39;;;;;;;22.17;17.73;;;8.30;82.30;;;;;;5006652;28;20463;-42
2021/10/11 07:52:06;;;;;;;25.33;15.60;;;8.30;82.40;;;;;;5007506;28;20464;-42
2021/10/11 07:54:33;;;;;;;24.90;16.00;;;8.30;82.30;;;;;;5007006;28;20463;-42
2021/10/11 07:57:00;;;;;;;25.00;16.80;;;8.40;82.20;;;;;;5008908;28;20567;-42
2021/10/11 07:59:28;;;;;;;23.63;16.20;;;8.40;82.00;;;;;;5006219;28;20464;-42
2021/10/11 08:01:56;;;;;;;22.33;16.60;;;8.40;82.20;;;;;;5007751;28;20460;-42
2021/10/11 08:04:23;;;;;;;25.13;16.30;;;8.40;82.00;;;;;;5006341;28;21072;-42
2021/10/11 08:06:49;;;;;;;24.57;17.10;;;8.50;81.90;;;;;;5007512;28;20551;-42
2021/10/11 08:09:16;;;;;;;30.37;18.17;;;8.50;81.90;;;;;;5008541;28;20899;-42
2021/10/11 08:11:43;;;;;;;22.10;15.23;;;8.40;82.10;;;;;;5005943;28;20460;-42
2021/10/11 08:14:10;;;;;;;23.77;17.00;;;8.40;82.30;;;;;;5006265;28;20449;-42
2021/10/11 08:16:38;;;;;;;18.70;14.30;;;8.40;82.50;;;;;;5008278;28;20457;-42
2021/10/11 08:19:05;;;;;;;18.57;13.50;;;8.40;82.50;;;;;;5007742;28;20955;-42
2021/10/11 08:21:32;;;;;;;23.00;16.27;;;8.50;82.50;;;;;;5004152;28;20560;-42
2021/10/11 08:23:59;;;;;;;24.17;17.30;;;8.50;82.60;;;;;;5007348;28;20452;-42
2021/10/11 08:26:26;;;;;;;24.33;16.50;;;8.60;82.50;;;;;;5008223;28;20957;-42
2021/10/11 08:28:53;;;;;;;21.50;16.50;;;8.60;82.40;;;;;;5006864;28;20459;-42
2021/10/11 08:31:20;;;;;;;26.17;16.70;;;8.60;82.40;;;;;;5006941;28;20456;-42
2021/10/11 08:33:47;;;;;;;21.10;17.83;;;8.60;82.50;;;;;;5002905;28;20471;-42
2021/10/11 08:36:15;;;;;;;32.93;19.17;;;8.70;82.40;;;;;;5006669;28;20872;-42
2021/10/11 08:38:42;;;;;;;28.13;18.90;;;8.70;82.50;;;;;;5007876;28;20483;-42
2021/10/11 08:41:10;;;;;;;25.57;16.40;;;8.70;82.40;;;;;;4989785;28;20459;-42
2021/10/11 08:43:38;;;;;;;26.47;18.80;;;8.70;82.30;;;;;;5007959;28;20539;-42
2021/10/11 08:46:06;;;;;;;27.30;19.13;;;8.70;82.40;;;;;;5008702;28;20464;-42
2021/10/11 08:48:34;;;;;;;26.20;18.73;;;8.70;82.40;;;;;;5008306;28;21032;-42
2021/10/11 08:51:03;;;;;;;22.40;16.70;;;8.70;82.60;;;;;;5007280;28;20459;-42
2021/10/11 08:53:30;;;;;;;25.30;18.20;;;8.70;82.70;;;;;;5009382;28;20444;-42
2021/10/11 08:55:57;;;;;;;27.70;18.30;;;8.70;82.70;;;;;;5005232;28;20479;-42
2021/10/11 08:58:25;;;;;;;36.50;20.10;;;8.80;82.70;;;;;;5009032;28;20492;-42
2021/10/11 09:01:04;;;;;;;35.90;19.97;;;8.80;82.70;;;;;;5008513;28;20487;-42
2021/10/11 09:03:32;;;;;;;29.70;18.50;;;8.80;82.90;;;;;;5007510;28;20479;-42
2021/10/11 09:06:07;;;;;;;33.10;20.23;;;8.80;83.00;;;;;;5007390;28;20460;-42
2021/10/11 09:08:35;;;;;;;27.23;18.53;;;8.90;83.20;;;;;;5006819;28;20462;-42
2021/10/11 09:11:12;;;;;;;32.90;20.30;;;8.90;83.30;;;;;;5008489;28;20495;-42
2021/10/11 09:13:46;;;;;;;24.87;19.00;;;8.90;83.30;;;;;;5003788;28;20866;-42
2021/10/11 09:16:28;;;;;;;28.37;20.10;;;8.90;83.40;;;;;;5009241;28;20858;-42
2021/10/11 09:19:07;;;;;;;27.73;18.67;;;9.00;83.40;;;;;;5007516;28;21009;-42
2021/10/11 09:21:35;;;;;;;27.03;19.30;;;9.00;83.40;;;;;;5005534;28;20530;-42
2021/10/11 09:24:13;;;;;;;33.37;21.70;;;9.00;83.40;;;;;;5005733;28;20834;-42
2021/10/11 09:26:45;;;;;;;34.10;20.53;;;9.10;83.60;;;;;;5007223;28;20445;-42
2021/10/11 09:29:13;;;;;;;31.37;21.30;;;9.10;83.70;;;;;;5006029;28;20459;-42
2021/10/11 09:31:42;;;;;;;32.10;20.70;;;9.10;83.80;;;;;;5008126;28;20463;-42
2021/10/11 09:34:18;;;;;;;27.73;20.93;;;9.10;83.90;;;;;;5007273;28;20603;-43
2021/10/11 09:36:58;;;;;;;32.73;21.90;;;9.10;84.00;;;;;;5007531;28;20453;-42
2021/10/11 09:39:27;;;;;;;32.53;20.63;;;9.20;84.00;;;;;;5007256;28;20457;-42
2021/10/11 09:41:55;;;;;;;40.43;20.23;;;9.20;84.20;;;;;;5007547;28;20444;-42
2021/10/11 09:44:22;;;;;;;31.37;20.97;;;9.20;84.30;;;;;;4989598;28;20456;-42
2021/10/11 09:46:57;;;;;;;30.57;20.27;;;9.20;84.40;;;;;;5007875;28;20445;-42
2021/10/11 09:49:24;;;;;;;35.17;22.17;;;9.30;84.50;;;;;;5007709;28;20452;-42
2021/10/11 09:51:53;;;;;;;37.60;22.20;;;9.40;84.60;;;;;;5005147;28;20471;-42
2021/10/11 09:54:20;;;;;;;33.20;23.27;;;9.40;84.50;;;;;;4990731;28;20463;-42
2021/10/11 09:56:47;;;;;;;38.23;24.33;;;9.40;84.60;;;;;;5005700;28;20856;-42
2021/10/11 09:59:16;;;;;;;43.80;23.10;;;9.50;84.60;;;;;;5003525;28;21789;-42
2021/10/11 10:01:46;;;;;;;39.03;25.80;;;9.50;84.70;;;;;;5008448;28;20445;-43
2021/10/11 10:04:17;;;;;;;36.53;24.10;;;9.50;84.80;;;;;;5001309;28;20491;-43
2021/10/11 10:06:46;;;;;;;43.10;26.20;;;9.60;84.80;;;;;;4989190;28;20463;-42
2021/10/11 10:09:15;;;;;;;37.73;25.20;;;9.70;84.90;;;;;;5005959;28;20539;-42
2021/10/11 10:11:42;;;;;;;38.60;25.97;;;9.80;85.00;;;;;;5005017;28;21248;-42
2021/10/11 10:14:23;;;;;;;40.77;23.40;;;9.80;85.00;;;;;;5005961;28;20467;-42
2021/10/11 10:16:54;;;;;;;37.70;24.40;;;10.00;84.90;;;;;;5005367;28;20518;-42
2021/10/11 10:19:38;;;;;;;37.77;25.80;;;10.10;84.90;;;;;;4988102;28;20486;-42
2021/10/11 10:22:11;;;;;;;43.20;25.27;;;10.20;84.70;;;;;;5006364;28;20685;-42
2021/10/11 10:24:38;;;;;;;39.33;26.60;;;10.30;84.70;;;;;;5006775;28;20449;-42
2021/10/11 10:27:10;;;;;;;39.13;26.50;;;10.40;84.60;;;;;;5005171;28;20462;-42
2021/10/11 10:29:48;;;;;;;36.80;25.63;;;10.50;84.50;;;;;;5006145;28;20471;-42
2021/10/11 10:32:19;;;;;;;47.07;28.27;;;10.50;84.60;;;;;;5001959;28;20467;-42
2021/10/11 10:34:59;;;;;;;41.70;27.93;;;10.60;84.70;;;;;;5006739;28;20953;-42
2021/10/11 10:37:36;;;;;;;37.80;25.53;;;10.70;84.50;;;;;;5007692;28;20460;-42
2021/10/11 10:40:11;;;;;;;42.50;26.33;;;10.90;84.40;;;;;;5005946;28;20449;-42
2021/10/11 10:42:38;;;;;;;40.83;24.83;;;10.90;84.40;;;;;;5007063;28;20952;-42
2021/10/11 10:45:13;;;;;;;38.97;26.07;;;11.00;84.50;;;;;;5004519;28;20818;-42
2021/10/11 10:47:41;;;;;;;33.40;24.67;;;11.10;84.60;;;;;;5006317;28;20456;-42
2021/10/11 10:50:31;;;;;;;38.13;24.00;;;11.20;84.60;;;;;;5006489;28;20456;-42
2021/10/11 10:53:00;;;;;;;40.00;26.03;;;11.30;84.50;;;;;;5005805;28;20464;-42
2021/10/11 10:55:27;;;;;;;39.37;24.70;;;11.40;84.50;;;;;;5005293;28;20452;-42
2021/10/11 10:58:05;;;;;;;44.87;28.37;;;11.50;84.30;;;;;;5005064;28;20487;-42
2021/10/11 11:00:32;;;;;;;39.53;25.20;;;11.60;84.20;;;;;;5005497;28;20456;-42
2021/10/11 11:02:59;;;;;;;42.80;24.63;;;11.70;84.20;;;;;;5004982;28;20475;-43
2021/10/11 11:05:29;;;;;;;31.67;23.53;;;11.80;84.10;;;;;;5004357;28;20549;-42
2021/10/11 11:07:57;;;;;;;32.27;22.37;;;11.90;84.00;;;;;;5007884;28;20454;-42
2021/10/11 11:10:26;;;;;;;31.73;21.97;;;12.00;83.80;;;;;;5004841;28;20468;-42
2021/10/11 11:12:56;;;;;;;31.60;20.30;;;12.10;83.70;;;;;;5007132;28;20464;-42
2021/10/11 11:15:28;;;;;;;26.23;18.77;;;12.30;83.40;;;;;;5006126;28;20460;-43
2021/10/11 11:17:57;;;;;;;25.50;18.30;;;12.40;83.10;;;;;;5007611;28;20488;-43
2021/10/11 11:20:29;;;;;;;25.97;18.90;;;12.50;82.80;;;;;;5005225;28;20452;-42
2021/10/11 11:23:02;;;;;;;23.40;17.00;;;12.60;82.80;;;;;;5010263;28;20754;-42
2021/10/11 11:25:41;;;;;;;24.00;16.93;;;12.70;82.70;;;;;;5009369;28;20829;-42
2021/10/11 11:28:14;;;;;;;23.43;16.57;;;12.90;82.60;;;;;;5010530;28;20444;-42
2021/10/11 11:30:42;;;;;;;24.37;15.27;;;13.00;82.20;;;;;;5010279;28;20482;-43
2021/10/11 11:33:10;;;;;;;22.23;14.70;;;13.20;82.00;;;;;;5010482;28;20460;-42
2021/10/11 11:35:44;;;;;;;20.87;15.37;;;13.30;81.90;;;;;;5010193;28;20456;-42
2021/10/11 11:38:14;;;;;;;27.70;14.87;;;13.40;81.60;;;;;;5006250;28;20492;-42
2021/10/11 11:40:59;;;;;;;16.87;14.20;;;13.60;81.40;;;;;;4991887;28;20936;-43
2021/10/11 11:43:32;;;;;;;17.73;11.90;;;13.70;81.10;;;;;;5005808;28;20445;-42
2021/10/11 11:46:00;;;;;;;16.43;11.13;;;13.90;79.30;;;;;;5006810;28;20448;-42
2021/10/11 11:48:29;;;;;;;13.50;10.33;;;14.00;79.40;;;;;;5007343;28;20456;-42
2021/10/11 11:51:01;;;;;;;11.30;9.80;;;14.00;79.30;;;;;;5009322;28;20952;-42
2021/10/11 11:53:31;;;;;;;11.80;8.83;;;14.10;79.00;;;;;;5007661;28;20467;-42
2021/10/11 11:56:00;;;;;;;13.80;9.20;;;14.20;78.60;;;;;;5010060;28;20452;-42
2021/10/11 11:58:36;;;;;;;15.67;10.30;;;14.30;78.00;;;;;;5007165;28;20490;-42
2021/10/11 12:01:10;;;;;;;13.80;9.33;;;14.30;77.90;;;;;;4991403;28;20708;-42
2021/10/11 12:03:43;;;;;;;15.10;9.67;;;14.40;77.80;;;;;;5006576;28;20475;-42
2021/10/11 12:06:10;;;;;;;13.33;9.37;;;14.40;77.20;;;;;;5007680;28;20463;-42
2021/10/11 12:08:41;;;;;;;12.07;8.50;;;14.50;77.20;;;;;;5009214;28;20460;-42
2021/10/11 12:11:08;;;;;;;13.40;8.87;;;14.50;77.10;;;;;;5011115;28;20459;-42
2021/10/11 12:13:43;;;;;;;13.43;10.10;;;14.60;76.90;;;;;;5006462;28;20459;-42
2021/10/11 12:16:13;;;;;;;11.60;9.30;;;14.60;76.90;;;;;;5010488;28;20785;-42
2021/10/11 12:18:43;;;;;;;13.10;9.33;;;14.60;76.40;;;;;;5008227;28;20480;-42
2021/10/11 12:21:25;;;;;;;12.63;9.73;;;14.60;76.30;;;;;;5006848;28;20472;-42
2021/10/11 12:23:54;;;;;;;13.00;9.00;;;14.60;76.30;;;;;;5008375;28;20464;-42
2021/10/11 12:26:22;;;;;;;13.47;8.97;;;14.70;76.00;;;;;;5009506;28;21415;-42
2021/10/11 12:28:54;;;;;;;11.90;7.07;;;14.70;75.90;;;;;;5009323;28;20475;-42
2021/10/11 12:31:28;;;;;;;11.60;7.37;;;14.70;75.40;;;;;;5007345;28;20462;-42
2021/10/11 12:34:07;;;;;;;6.63;5.37;;;14.70;75.30;;;;;;5007835;28;20456;-42
2021/10/11 12:36:52;;;;;;;10.03;6.43;;;14.70;75.00;;;;;;5005525;28;20465;-42
2021/10/11 12:39:21;;;;;;;11.73;6.50;;;14.70;74.30;;;;;;5007967;28;20786;-42
2021/10/11 12:41:49;;;;;;;10.30;6.70;;;14.60;73.90;;;;;;5007964;28;20455;-42